Time;durP1;ratioP1;P1;durP2;ratioP2;P2;SDS_P1;SDS_P2;PMS_P1;PMS_P2;Temp;Humidity;BMP_temperature;BMP_pressure;BME280_temperature;BME280_humidity;BME280_pressure;Samples;Min_cycle;Max_cycle;Signal;HPM_P1;HPM_P2
2022/05/28 00:00:30;;;;;;;3.95;2.80;;;;;;;;;;5072140;28;20049;-69
2022/05/28 00:02:57;;;;;;;2.70;2.33;;;;;;;;;;5071531;28;20044;-70
2022/05/28 00:05:23;;;;;;;4.80;2.53;;;;;;;;;;5070952;28;20056;-70
2022/05/28 00:07:50;;;;;;;4.90;2.47;;;;;;;;;;5072075;28;20052;-69
2022/05/28 00:10:18;;;;;;;5.88;2.75;;;;;;;;;;5071833;28;20048;-69
2022/05/28 00:12:45;;;;;;;5.50;2.78;;;;;;;;;;5071459;28;20138;-70
2022/05/28 00:15:12;;;;;;;7.57;2.42;;;;;;;;;;5071893;28;20048;-69
2022/05/28 00:17:38;;;;;;;4.60;2.30;;;;;;;;;;5070754;28;20048;-69
2022/05/28 00:20:06;;;;;;;7.70;2.65;;;;;;;;;;5072445;28;20052;-70
2022/05/28 00:22:41;;;;;;;5.72;2.20;;;;;;;;;;5072894;28;20048;-70
2022/05/28 00:25:10;;;;;;;7.50;2.40;;;;;;;;;;5071880;28;20045;-70
2022/05/28 00:27:37;;;;;;;5.75;2.35;;;;;;;;;;5071751;28;20045;-70
2022/05/28 00:30:05;;;;;;;6.85;2.70;;;;;;;;;;5071995;28;20048;-71
2022/05/28 00:32:31;;;;;;;7.93;2.45;;;;;;;;;;5070903;28;20052;-70
2022/05/28 00:34:58;;;;;;;7.22;2.85;;;;;;;;;;5071566;28;20495;-69
2022/05/28 00:37:25;;;;;;;7.57;2.58;;;;;;;;;;5071408;28;20465;-69
2022/05/28 00:39:51;;;;;;;4.65;2.30;;;;;;;;;;5071410;28;20052;-69
2022/05/28 00:42:18;;;;;;;7.53;2.53;;;;;;;;;;5071348;28;20495;-70
2022/05/28 00:44:45;;;;;;;6.78;2.50;;;;;;;;;;5071527;28;20048;-70
2022/05/28 00:47:11;;;;;;;6.72;2.58;;;;;;;;;;5071498;28;20190;-69
2022/05/28 00:49:38;;;;;;;8.93;2.78;;;;;;;;;;5070219;28;20465;-69
2022/05/28 00:52:07;;;;;;;5.38;2.17;;;;;;;;;;5071006;28;20058;-69
2022/05/28 00:54:39;;;;;;;5.10;2.42;;;;;;;;;;5071553;28;20110;-70
2022/05/28 00:57:06;;;;;;;8.02;2.70;;;;;;;;;;5071616;28;20098;-69
2022/05/28 00:59:33;;;;;;;9.95;3.00;;;;;;;;;;5070065;28;20118;-70
2022/05/28 01:02:15;;;;;;;8.00;2.42;;;;;;;;;;5070958;28;20066;-70
2022/05/28 01:04:54;;;;;;;4.57;2.50;;;;;;;;;;5070085;28;20063;-70
2022/05/28 01:07:32;;;;;;;5.90;2.72;;;;;;;;;;5070293;28;20057;-70
2022/05/28 01:10:17;;;;;;;9.32;3.15;;;;;;;;;;5074369;28;20098;-70
2022/05/28 01:12:52;;;;;;;5.38;2.25;;;;;;;;;;5057715;28;20041;-69
2022/05/28 01:15:30;;;;;;;6.22;2.60;;;;;;;;;;5074767;28;20053;-70
2022/05/28 01:18:17;;;;;;;5.07;2.78;;;;;;;;;;5058853;28;20044;-70
2022/05/28 01:20:47;;;;;;;9.75;2.22;;;;;;;;;;5073656;28;20048;-70
2022/05/28 01:23:33;;;;;;;8.40;2.25;;;;;;;;;;5073695;28;20040;-69
2022/05/28 01:26:03;;;;;;;7.55;2.25;;;;;;;;;;5075663;28;20487;-70
2022/05/28 01:28:33;;;;;;;4.50;2.30;;;;;;;;;;5073729;28;20573;-70
2022/05/28 01:31:00;;;;;;;5.32;2.45;;;;;;;;;;5072747;28;20070;-70
2022/05/28 01:33:27;;;;;;;4.68;1.98;;;;;;;;;;5056609;28;20049;-70
2022/05/28 01:35:54;;;;;;;3.92;1.88;;;;;;;;;;5073118;28;20135;-70
2022/05/28 01:38:20;;;;;;;6.32;2.22;;;;;;;;;;5073241;28;20056;-70
2022/05/28 01:40:47;;;;;;;4.88;2.17;;;;;;;;;;5073172;28;20052;-70
2022/05/28 01:43:14;;;;;;;8.98;2.15;;;;;;;;;;5056503;28;20044;-70
2022/05/28 01:45:44;;;;;;;8.50;2.17;;;;;;;;;;5056699;28;20067;-70
2022/05/28 01:48:11;;;;;;;8.65;1.90;;;;;;;;;;5073023;28;20052;-69
2022/05/28 01:50:45;;;;;;;8.65;2.40;;;;;;;;;;5072818;28;20503;-70
2022/05/28 01:54:07;;;;;;;5.10;2.03;;;;;;;;;;5056466;28;20135;-70
2022/05/28 01:56:01;;;;;;;4.70;2.33;;;;;;;;;;5059455;28;20523;-70
2022/05/28 01:58:27;;;;;;;4.63;2.05;;;;;;;;;;5072875;28;20051;-70
2022/05/28 02:00:54;;;;;;;9.27;2.10;;;;;;;;;;5072522;28;20056;-70
2022/05/28 02:03:20;;;;;;;10.13;2.20;;;;;;;;;;5074264;28;20094;-70
2022/05/28 02:05:47;;;;;;;7.80;2.25;;;;;;;;;;5072852;28;20053;-70
2022/05/28 02:08:14;;;;;;;5.55;2.60;;;;;;;;;;5073788;28;20048;-70
2022/05/28 02:10:41;;;;;;;8.35;2.55;;;;;;;;;;5073804;28;20533;-70
2022/05/28 02:13:19;;;;;;;4.57;2.53;;;;;;;;;;5072282;28;20051;-70
2022/05/28 02:15:49;;;;;;;3.80;1.70;;;;;;;;;;5056786;28;20066;-70
2022/05/28 02:18:21;;;;;;;6.65;2.13;;;;;;;;;;5056001;28;20106;-70
2022/05/28 02:20:54;;;;;;;4.72;2.30;;;;;;;;;;5071137;28;20071;-70
2022/05/28 02:23:26;;;;;;;8.85;2.45;;;;;;;;;;5072562;28;20049;-70
2022/05/28 02:26:08;;;;;;;8.77;2.47;;;;;;;;;;5073644;28;20049;-70
2022/05/28 02:28:35;;;;;;;7.10;1.90;;;;;;;;;;5072243;28;20048;-70
2022/05/28 02:31:16;;;;;;;9.93;2.20;;;;;;;;;;5055342;28;20083;-70
2022/05/28 02:33:43;;;;;;;9.00;2.78;;;;;;;;;;5073329;28;20071;-70
2022/05/28 02:36:14;;;;;;;10.32;2.33;;;;;;;;;;5073216;28;20044;-70
2022/05/28 02:38:42;;;;;;;8.48;2.10;;;;;;;;;;5072382;28;20044;-70
2022/05/28 02:41:09;;;;;;;8.13;1.70;;;;;;;;;;5073144;28;20049;-71
2022/05/28 02:43:36;;;;;;;11.82;2.10;;;;;;;;;;5073248;28;20040;-70
2022/05/28 02:46:04;;;;;;;14.00;3.08;;;;;;;;;;5073457;28;20049;-70
2022/05/28 02:48:31;;;;;;;5.90;1.42;;;;;;;;;;5071926;28;20054;-70
2022/05/28 02:51:03;;;;;;;8.50;1.98;;;;;;;;;;5072696;28;20538;-69
2022/05/28 02:53:30;;;;;;;5.30;1.60;;;;;;;;;;5072964;28;20055;-70
2022/05/28 02:55:56;;;;;;;7.82;2.35;;;;;;;;;;5072973;28;20495;-69
2022/05/28 02:58:24;;;;;;;9.18;1.73;;;;;;;;;;5072963;28;20056;-69
2022/05/28 03:00:51;;;;;;;5.63;1.92;;;;;;;;;;5073080;28;20055;-70
2022/05/28 03:03:19;;;;;;;9.32;2.33;;;;;;;;;;5072362;28;20549;-70
2022/05/28 03:05:47;;;;;;;10.63;2.08;;;;;;;;;;5073143;28;20419;-70
2022/05/28 03:08:14;;;;;;;9.18;2.53;;;;;;;;;;5072614;28;20052;-70
2022/05/28 03:10:41;;;;;;;16.00;2.38;;;;;;;;;;5072617;28;20056;-69
2022/05/28 03:13:07;;;;;;;6.75;1.90;;;;;;;;;;5072320;28;20491;-70
2022/05/28 03:15:34;;;;;;;9.60;1.90;;;;;;;;;;5072786;28;20045;-70
2022/05/28 03:18:01;;;;;;;9.23;2.83;;;;;;;;;;5072308;28;20509;-70
2022/05/28 03:20:29;;;;;;;7.93;3.03;;;;;;;;;;5072346;28;20560;-70
2022/05/28 03:22:56;;;;;;;8.27;1.92;;;;;;;;;;5072220;28;20514;-70
2022/05/28 03:25:23;;;;;;;8.15;2.10;;;;;;;;;;5072250;28;20068;-68
2022/05/28 03:27:50;;;;;;;6.70;2.30;;;;;;;;;;5072301;28;20044;-70
2022/05/28 03:30:17;;;;;;;9.35;2.22;;;;;;;;;;5072219;28;20084;-70
2022/05/28 03:32:43;;;;;;;8.48;1.98;;;;;;;;;;5071385;28;20052;-70
2022/05/28 03:35:10;;;;;;;9.07;1.88;;;;;;;;;;5072368;28;20054;-69
2022/05/28 03:37:36;;;;;;;9.77;2.20;;;;;;;;;;5072247;28;20045;-69
2022/05/28 03:40:04;;;;;;;7.75;1.85;;;;;;;;;;5072186;28;20059;-69
2022/05/28 03:42:30;;;;;;;8.18;2.33;;;;;;;;;;5071902;28;20491;-70
2022/05/28 03:44:57;;;;;;;11.48;2.42;;;;;;;;;;5071896;28;20055;-68
2022/05/28 03:47:24;;;;;;;13.77;2.55;;;;;;;;;;5072184;28;20057;-69
2022/05/28 03:49:50;;;;;;;8.85;1.83;;;;;;;;;;5071888;28;20048;-70
2022/05/28 03:52:17;;;;;;;8.75;1.67;;;;;;;;;;5054292;28;20048;-70
2022/05/28 03:54:44;;;;;;;8.32;2.08;;;;;;;;;;5071961;28;20048;-69
2022/05/28 03:57:20;;;;;;;6.53;1.70;;;;;;;;;;5072042;28;20507;-69
2022/05/28 03:59:47;;;;;;;7.93;2.40;;;;;;;;;;5055297;28;20049;-70
2022/05/28 04:02:14;;;;;;;8.15;1.70;;;;;;;;;;5071475;28;20049;-69
2022/05/28 04:04:40;;;;;;;9.65;1.92;;;;;;;;;;5071769;28;20499;-70
2022/05/28 04:07:09;;;;;;;15.02;2.50;;;;;;;;;;5071951;28;20053;-69
2022/05/28 04:09:36;;;;;;;9.70;2.80;;;;;;;;;;5071803;28;20059;-69
2022/05/28 04:12:03;;;;;;;6.85;1.77;;;;;;;;;;5071427;28;20102;-70
2022/05/28 04:14:29;;;;;;;9.70;2.15;;;;;;;;;;5071603;28;20052;-70
2022/05/28 04:16:56;;;;;;;6.60;1.52;;;;;;;;;;5071620;28;20044;-69
2022/05/28 04:19:22;;;;;;;8.80;1.70;;;;;;;;;;5071689;28;20117;-69
2022/05/28 04:21:49;;;;;;;6.18;1.50;;;;;;;;;;5071521;28;20052;-69
2022/05/28 04:24:16;;;;;;;11.10;2.45;;;;;;;;;;5071557;28;20059;-70
2022/05/28 04:26:43;;;;;;;6.63;1.70;;;;;;;;;;5071433;28;20518;-69
2022/05/28 04:29:09;;;;;;;5.72;1.55;;;;;;;;;;5071924;28;20064;-70
2022/05/28 04:31:36;;;;;;;7.78;2.05;;;;;;;;;;5070948;28;20139;-70
2022/05/28 04:34:03;;;;;;;10.88;2.83;;;;;;;;;;5071562;28;20056;-69
2022/05/28 04:36:29;;;;;;;8.30;1.67;;;;;;;;;;5071533;28;20048;-70
2022/05/28 04:38:56;;;;;;;6.90;1.75;;;;;;;;;;5071832;28;20495;-69
2022/05/28 04:41:23;;;;;;;8.20;1.63;;;;;;;;;;5070005;28;20052;-69
2022/05/28 04:43:49;;;;;;;5.20;1.33;;;;;;;;;;5073230;28;20106;-70
2022/05/28 04:46:16;;;;;;;9.48;1.55;;;;;;;;;;5075380;28;20495;-70
2022/05/28 04:48:43;;;;;;;11.95;1.58;;;;;;;;;;5075886;28;20048;-70
2022/05/28 04:51:10;;;;;;;11.05;1.95;;;;;;;;;;5075095;28;20049;-69
2022/05/28 04:53:37;;;;;;;9.43;1.92;;;;;;;;;;5075239;28;20044;-70
2022/05/28 04:56:04;;;;;;;8.05;1.77;;;;;;;;;;5075063;28;20056;-69
2022/05/28 04:58:30;;;;;;;9.70;2.75;;;;;;;;;;5075327;28;20053;-69
2022/05/28 05:00:57;;;;;;;5.00;1.60;;;;;;;;;;5074830;28;20098;-68
2022/05/28 05:03:24;;;;;;;8.32;1.70;;;;;;;;;;5074713;28;20040;-70
2022/05/28 05:05:50;;;;;;;8.13;1.75;;;;;;;;;;5074902;28;20048;-70
2022/05/28 05:08:17;;;;;;;10.80;1.88;;;;;;;;;;5074776;28;20064;-68
2022/05/28 05:10:46;;;;;;;7.57;1.73;;;;;;;;;;5074583;28;20572;-69
2022/05/28 05:13:13;;;;;;;11.35;1.80;;;;;;;;;;5074840;28;20048;-69
2022/05/28 05:15:40;;;;;;;6.53;1.60;;;;;;;;;;5074890;28;20094;-70
2022/05/28 05:18:06;;;;;;;6.05;2.35;;;;;;;;;;5074825;28;20052;-70
2022/05/28 05:20:33;;;;;;;5.60;1.63;;;;;;;;;;5074655;28;20354;-70
2022/05/28 05:23:01;;;;;;;8.27;2.03;;;;;;;;;;5074253;28;20407;-69
2022/05/28 05:25:27;;;;;;;10.23;1.73;;;;;;;;;;5075131;28;20059;-69
2022/05/28 05:27:54;;;;;;;8.45;1.92;;;;;;;;;;5074533;28;20048;-69
2022/05/28 05:30:21;;;;;;;9.32;1.80;;;;;;;;;;5074639;28;20466;-70
2022/05/28 05:32:47;;;;;;;8.73;1.92;;;;;;;;;;5074328;28;20098;-70
2022/05/28 05:35:14;;;;;;;11.80;2.13;;;;;;;;;;5074367;28;20052;-69
2022/05/28 05:37:41;;;;;;;4.13;1.30;;;;;;;;;;5074282;28;20465;-69
2022/05/28 05:40:09;;;;;;;5.97;2.00;;;;;;;;;;5074580;28;20060;-70
2022/05/28 05:42:36;;;;;;;9.88;1.85;;;;;;;;;;5074083;28;20045;-70
2022/05/28 05:45:03;;;;;;;7.57;1.90;;;;;;;;;;5074183;28;20457;-70
2022/05/28 05:47:30;;;;;;;5.45;1.40;;;;;;;;;;5074406;28;20052;-71
2022/05/28 05:49:56;;;;;;;9.73;1.85;;;;;;;;;;5074008;28;20057;-70
2022/05/28 05:52:23;;;;;;;7.50;1.55;;;;;;;;;;5074064;28;20396;-70
2022/05/28 05:54:50;;;;;;;10.30;1.88;;;;;;;;;;5073990;28;20041;-70
2022/05/28 05:57:17;;;;;;;7.47;1.98;;;;;;;;;;5073999;28;20053;-70
2022/05/28 05:59:44;;;;;;;7.78;2.05;;;;;;;;;;5073097;28;20055;-70
2022/05/28 06:02:11;;;;;;;8.18;1.55;;;;;;;;;;5073676;28;20048;-70
2022/05/28 06:04:38;;;;;;;7.32;1.90;;;;;;;;;;5072406;28;20045;-70
2022/05/28 06:07:05;;;;;;;7.15;1.70;;;;;;;;;;5073957;28;20487;-69
2022/05/28 06:09:32;;;;;;;6.90;1.65;;;;;;;;;;5073975;28;20071;-70
2022/05/28 06:11:59;;;;;;;6.28;1.60;;;;;;;;;;5073654;28;20055;-69
2022/05/28 06:14:26;;;;;;;6.82;1.20;;;;;;;;;;5073610;28;20049;-70
2022/05/28 06:16:52;;;;;;;6.75;1.50;;;;;;;;;;5073685;28;20082;-70
2022/05/28 06:19:19;;;;;;;8.27;1.80;;;;;;;;;;5073425;28;20055;-70
2022/05/28 06:21:46;;;;;;;5.18;1.10;;;;;;;;;;5073574;28;20418;-70
2022/05/28 06:24:13;;;;;;;7.35;1.58;;;;;;;;;;5073357;28;20056;-70
2022/05/28 06:26:39;;;;;;;8.38;1.10;;;;;;;;;;5073706;28;20106;-70
2022/05/28 06:29:06;;;;;;;6.35;1.67;;;;;;;;;;5073474;28;20052;-71
2022/05/28 06:31:33;;;;;;;6.68;1.30;;;;;;;;;;5072854;28;20052;-70
2022/05/28 06:33:59;;;;;;;7.43;1.60;;;;;;;;;;5073139;28;20558;-70
2022/05/28 06:36:26;;;;;;;8.70;1.88;;;;;;;;;;5073421;28;20473;-69
2022/05/28 06:38:52;;;;;;;6.45;1.20;;;;;;;;;;5073197;28;20499;-70
2022/05/28 06:41:19;;;;;;;4.75;1.58;;;;;;;;;;5073070;28;20052;-70
2022/05/28 06:43:46;;;;;;;7.88;1.02;;;;;;;;;;5072973;28;20041;-70
2022/05/28 06:46:12;;;;;;;4.57;1.08;;;;;;;;;;5072931;28;20056;-70
2022/05/28 06:48:40;;;;;;;4.75;1.75;;;;;;;;;;5073207;28;20052;-70
2022/05/28 06:51:07;;;;;;;7.80;1.25;;;;;;;;;;5072854;28;20075;-70
2022/05/28 06:53:43;;;;;;;7.32;1.33;;;;;;;;;;5073293;28;20067;-71
2022/05/28 06:56:10;;;;;;;5.20;1.52;;;;;;;;;;5074048;28;20044;-70
2022/05/28 06:58:38;;;;;;;6.20;1.13;;;;;;;;;;5073617;28;20051;-70
2022/05/28 07:01:07;;;;;;;4.18;1.20;;;;;;;;;;5074407;28;20045;-71
2022/05/28 07:03:34;;;;;;;4.20;1.10;;;;;;;;;;5073896;28;20426;-71
2022/05/28 07:06:00;;;;;;;5.25;2.08;;;;;;;;;;5072645;28;20048;-70
2022/05/28 07:08:27;;;;;;;8.43;1.20;;;;;;;;;;5072768;28;20045;-71
2022/05/28 07:10:57;;;;;;;2.40;1.10;;;;;;;;;;5072511;28;20055;-69
2022/05/28 07:13:25;;;;;;;6.43;1.40;;;;;;;;;;5072341;28;20060;-71
2022/05/28 07:15:52;;;;;;;4.82;1.20;;;;;;;;;;5072634;28;20056;-71
2022/05/28 07:18:19;;;;;;;5.68;1.25;;;;;;;;;;5072637;28;20049;-70
2022/05/28 07:20:45;;;;;;;4.38;1.17;;;;;;;;;;5072327;28;20465;-71
2022/05/28 07:23:20;;;;;;;5.43;1.60;;;;;;;;;;5072162;28;20109;-71
2022/05/28 07:25:47;;;;;;;4.47;1.00;;;;;;;;;;5072439;28;20411;-71
2022/05/28 07:28:27;;;;;;;3.83;1.40;;;;;;;;;;5072234;28;20105;-71
2022/05/28 07:31:00;;;;;;;4.93;1.13;;;;;;;;;;5071855;28;20054;-70
2022/05/28 07:33:28;;;;;;;11.52;1.58;;;;;;;;;;5072272;28;20049;-70
2022/05/28 07:35:56;;;;;;;6.22;1.30;;;;;;;;;;5072251;28;20537;-70
2022/05/28 07:38:24;;;;;;;5.07;1.13;;;;;;;;;;5072206;28;20052;-71
2022/05/28 07:40:51;;;;;;;3.40;1.13;;;;;;;;;;5072055;28;20562;-70
2022/05/28 07:43:18;;;;;;;5.07;1.25;;;;;;;;;;5072297;28;20109;-71
2022/05/28 07:45:46;;;;;;;6.47;1.35;;;;;;;;;;5072118;28;20074;-70
2022/05/28 07:48:13;;;;;;;5.35;1.20;;;;;;;;;;5072124;28;20481;-70
2022/05/28 07:50:40;;;;;;;8.85;0.98;;;;;;;;;;5072003;28;20049;-70
2022/05/28 07:53:08;;;;;;;3.15;0.80;;;;;;;;;;5070389;28;20071;-70
2022/05/28 07:55:35;;;;;;;3.35;0.70;;;;;;;;;;5072092;28;20462;-70
2022/05/28 07:58:14;;;;;;;3.25;0.95;;;;;;;;;;5071877;28;20510;-70
2022/05/28 08:00:46;;;;;;;4.70;1.13;;;;;;;;;;5071816;28;20495;-70
2022/05/28 08:03:13;;;;;;;2.05;0.70;;;;;;;;;;5103717;22;20041;-67
2022/05/28 08:05:46;;;;;;;3.55;0.77;;;;;;;;;;5071370;28;20214;-67
2022/05/28 08:08:12;;;;;;;5.78;1.55;;;;;;;;;;5071601;28;20048;-68
2022/05/28 08:10:39;;;;;;;3.45;1.00;;;;;;;;;;5071466;28;20227;-68
2022/05/28 08:13:08;;;;;;;3.33;1.20;;;;;;;;;;5071180;28;20048;-67
2022/05/28 08:15:36;;;;;;;5.05;1.35;;;;;;;;;;5071245;28;20135;-67
2022/05/28 08:18:03;;;;;;;5.80;1.30;;;;;;;;;;5070250;28;20071;-68
2022/05/28 08:23:15;;;;;;;6.43;1.52;;;;;;;;;;5071538;28;20056;-66
2022/05/28 08:25:42;;;;;;;6.15;1.40;;;;;;;;;;5071708;28;20098;-66
2022/05/28 08:28:10;;;;;;;4.82;1.17;;;;;;;;;;5071573;28;20079;-66
2022/05/28 08:30:38;;;;;;;4.93;1.00;;;;;;;;;;5071312;28;20049;-66
2022/05/28 08:33:06;;;;;;;5.13;1.95;;;;;;;;;;5071027;28;20045;-66
2022/05/28 08:35:33;;;;;;;2.78;0.88;;;;;;;;;;5071647;28;20049;-66
2022/05/28 08:38:04;;;;;;;9.35;1.73;;;;;;;;;;5071504;28;20049;-66
2022/05/28 08:40:32;;;;;;;5.65;1.15;;;;;;;;;;5071507;28;20064;-66
2022/05/28 08:42:59;;;;;;;5.13;0.90;;;;;;;;;;5070060;28;20487;-66
2022/05/28 08:45:25;;;;;;;5.30;1.00;;;;;;;;;;5070493;28;20078;-68
2022/05/28 08:47:54;;;;;;;4.85;1.00;;;;;;;;;;5071363;28;20055;-67
2022/05/28 08:50:21;;;;;;;5.32;1.20;;;;;;;;;;5071431;28;20076;-68
2022/05/28 08:52:54;;;;;;;3.13;0.88;;;;;;;;;;5069909;28;20059;-68
2022/05/28 08:55:27;;;;;;;6.07;1.52;;;;;;;;;;5055105;28;20132;-68
2022/05/28 08:58:07;;;;;;;3.22;0.85;;;;;;;;;;5071265;28;20494;-68
2022/05/28 09:00:49;;;;;;;2.65;0.80;;;;;;;;;;5054749;28;20072;-68
2022/05/28 09:03:25;;;;;;;5.93;1.17;;;;;;;;;;5054113;28;20049;-68
2022/05/28 09:06:15;;;;;;;5.28;1.13;;;;;;;;;;5054014;28;20052;-68
2022/05/28 09:08:49;;;;;;;3.55;1.20;;;;;;;;;;5071482;28;20049;-68
2022/05/28 09:11:24;;;;;;;7.35;1.27;;;;;;;;;;5071145;28;20049;-68
2022/05/28 09:13:53;;;;;;;2.53;0.88;;;;;;;;;;5054210;28;20423;-65
2022/05/28 09:16:28;;;;;;;3.95;0.95;;;;;;;;;;5069832;28;20485;-66
2022/05/28 09:18:58;;;;;;;4.40;1.13;;;;;;;;;;5069832;28;20048;-65
2022/05/28 09:21:24;;;;;;;7.53;0.90;;;;;;;;;;5069802;28;20045;-66
2022/05/28 09:23:54;;;;;;;4.25;1.27;;;;;;;;;;5070778;28;20503;-66
2022/05/28 09:26:34;;;;;;;5.30;0.93;;;;;;;;;;5071012;28;20057;-66
2022/05/28 09:29:30;;;;;;;5.57;1.08;;;;;;;;;;5069864;28;20056;-67
2022/05/28 09:31:59;;;;;;;4.15;1.33;;;;;;;;;;5045508;28;20049;-66
2022/05/28 09:34:40;;;;;;;4.75;1.20;;;;;;;;;;5073235;28;20479;-66
2022/05/28 09:37:26;;;;;;;5.78;1.30;;;;;;;;;;5073256;28;20048;-66
2022/05/28 09:40:19;;;;;;;9.48;1.25;;;;;;;;;;5073289;28;20048;-66
2022/05/28 09:43:04;;;;;;;4.90;1.33;;;;;;;;;;5073113;28;20103;-66
2022/05/28 09:45:46;;;;;;;3.63;1.13;;;;;;;;;;5073949;28;20045;-66
2022/05/28 09:48:18;;;;;;;5.50;1.60;;;;;;;;;;5058143;28;20067;-67
2022/05/28 09:50:45;;;;;;;4.50;1.02;;;;;;;;;;5074347;28;20059;-66
2022/05/28 09:56:21;;;;;;;3.30;0.90;;;;;;;;;;5059469;28;20049;-66
2022/05/28 09:58:48;;;;;;;7.03;1.20;;;;;;;;;;5074746;28;20104;-68
2022/05/28 10:01:25;;;;;;;5.03;2.05;;;;;;;;;;5072874;28;20049;-69
2022/05/28 10:04:32;;;;;;;4.25;1.13;;;;;;;;;;5072831;28;20056;-67
2022/05/28 10:06:53;;;;;;;7.20;1.10;;;;;;;;;;5070424;28;20094;-66
2022/05/28 10:09:21;;;;;;;2.92;0.93;;;;;;;;;;5072912;28;20048;-66
2022/05/28 10:11:50;;;;;;;3.78;1.10;;;;;;;;;;5073888;28;20089;-66
2022/05/28 10:14:17;;;;;;;5.25;1.30;;;;;;;;;;5073855;28;20094;-66
2022/05/28 10:16:46;;;;;;;3.85;1.30;;;;;;;;;;5073940;28;20101;-66
2022/05/28 10:19:30;;;;;;;4.22;1.30;;;;;;;;;;5073903;28;20071;-66
2022/05/28 10:21:58;;;;;;;2.53;0.77;;;;;;;;;;5074681;28;20045;-65
2022/05/28 10:24:26;;;;;;;4.53;1.20;;;;;;;;;;5058732;28;20044;-66
2022/05/28 10:26:55;;;;;;;3.83;1.10;;;;;;;;;;5072236;28;20461;-66
2022/05/28 10:29:41;;;;;;;4.75;1.58;;;;;;;;;;5073387;28;20059;-66
2022/05/28 10:32:26;;;;;;;4.38;1.15;;;;;;;;;;5056872;28;20048;-66
2022/05/28 10:35:07;;;;;;;6.55;1.70;;;;;;;;;;5072403;28;20049;-66
2022/05/28 10:37:34;;;;;;;4.57;0.93;;;;;;;;;;5073753;28;20110;-66
2022/05/28 10:40:08;;;;;;;3.50;0.85;;;;;;;;;;5072547;28;20048;-66
2022/05/28 10:42:35;;;;;;;3.75;1.38;;;;;;;;;;5071961;28;20110;-66
2022/05/28 10:45:02;;;;;;;6.82;1.42;;;;;;;;;;5073253;28;20098;-66
2022/05/28 10:47:47;;;;;;;4.53;1.10;;;;;;;;;;5071954;28;20055;-66
2022/05/28 10:50:19;;;;;;;4.45;1.27;;;;;;;;;;5072934;28;20048;-66
2022/05/28 10:53:30;;;;;;;7.82;1.23;;;;;;;;;;5071527;28;20053;-66
2022/05/28 10:56:08;;;;;;;4.88;1.33;;;;;;;;;;5058654;28;20041;-66
2022/05/28 10:59:04;;;;;;;2.58;0.80;;;;;;;;;;5071712;28;20125;-66
2022/05/28 11:01:36;;;;;;;4.10;0.98;;;;;;;;;;5035208;28;20106;-66
2022/05/28 11:04:14;;;;;;;7.60;1.10;;;;;;;;;;5074654;28;20049;-67
2022/05/28 11:07:15;;;;;;;4.38;1.17;;;;;;;;;;5073163;28;20052;-67
2022/05/28 11:10:03;;;;;;;2.78;0.57;;;;;;;;;;5074137;28;20056;-66
2022/05/28 11:12:30;;;;;;;1.95;0.63;;;;;;;;;;5074376;28;20048;-66
2022/05/28 11:15:22;;;;;;;3.28;1.20;;;;;;;;;;5073931;28;20418;-67
2022/05/28 11:17:58;;;;;;;3.42;0.80;;;;;;;;;;5073558;28;20052;-67
2022/05/28 11:21:10;;;;;;;2.47;0.80;;;;;;;;;;5073602;28;20045;-67
2022/05/28 11:23:57;;;;;;;4.67;1.03;;;;;;;;;;5028623;28;20049;-67
2022/05/28 11:26:46;;;;;;;2.55;0.70;;;;;;;;;;5073180;28;20286;-67
2022/05/28 11:29:30;;;;;;;2.40;0.93;;;;;;;;;;5074297;28;20055;-67
2022/05/28 11:32:00;;;;;;;4.25;1.00;;;;;;;;;;5073333;28;20557;-67
2022/05/28 11:34:40;;;;;;;4.00;1.20;;;;;;;;;;5071914;28;20044;-66
2022/05/28 11:37:15;;;;;;;3.17;0.82;;;;;;;;;;5056086;28;20499;-65
2022/05/28 11:39:45;;;;;;;3.08;0.90;;;;;;;;;;5070947;28;20052;-65
2022/05/28 11:42:31;;;;;;;2.30;1.10;;;;;;;;;;5070802;28;20518;-66
2022/05/28 11:44:59;;;;;;;2.85;0.80;;;;;;;;;;5071193;28;20415;-66
2022/05/28 11:47:57;;;;;;;3.33;0.80;;;;;;;;;;5054512;28;20044;-66
2022/05/28 11:53:41;;;;;;;3.70;0.90;;;;;;;;;;5057663;28;20049;-69
2022/05/28 11:56:13;;;;;;;4.75;0.90;;;;;;;;;;5071144;28;20040;-66
2022/05/28 11:58:44;;;;;;;10.50;1.20;;;;;;;;;;5072605;28;20048;-66
2022/05/28 12:01:13;;;;;;;3.83;1.00;;;;;;;;;;5070871;28;20055;-66
2022/05/28 12:03:43;;;;;;;4.03;1.33;;;;;;;;;;5071076;28;20052;-66
2022/05/28 12:06:18;;;;;;;4.55;1.30;;;;;;;;;;5070688;28;20136;-65
2022/05/28 12:09:04;;;;;;;4.07;0.85;;;;;;;;;;5071968;28;20132;-66
2022/05/28 12:11:39;;;;;;;3.97;1.17;;;;;;;;;;5070822;28;20048;-66
2022/05/28 12:14:19;;;;;;;6.28;1.20;;;;;;;;;;5072032;28;20106;-65
2022/05/28 12:16:57;;;;;;;5.65;1.15;;;;;;;;;;5071742;28;20102;-66
2022/05/28 12:19:24;;;;;;;3.72;1.40;;;;;;;;;;5054413;28;20129;-65
2022/05/28 12:21:51;;;;;;;2.47;0.90;;;;;;;;;;5070134;28;20049;-66
2022/05/28 12:24:17;;;;;;;6.53;1.02;;;;;;;;;;5071902;28;20052;-66
2022/05/28 12:29:58;;;;;;;4.65;0.90;;;;;;;;;;5070516;28;20506;-66
2022/05/28 12:32:29;;;;;;;2.63;0.98;;;;;;;;;;5071154;28;20055;-66
2022/05/28 12:35:28;;;;;;;3.70;1.08;;;;;;;;;;5071872;28;20040;-66
2022/05/28 12:37:58;;;;;;;4.88;0.82;;;;;;;;;;5027281;28;20052;-66
2022/05/28 12:40:54;;;;;;;5.15;1.30;;;;;;;;;;5070211;28;20048;-67
2022/05/28 12:43:34;;;;;;;4.95;0.98;;;;;;;;;;5071729;28;20048;-66
2022/05/28 12:46:34;;;;;;;7.68;1.05;;;;;;;;;;5071484;28;20045;-66
2022/05/28 12:49:12;;;;;;;5.03;1.00;;;;;;;;;;5071350;28;20093;-66
2022/05/28 12:51:57;;;;;;;2.30;1.15;;;;;;;;;;5054012;28;20067;-66
2022/05/28 12:54:29;;;;;;;4.70;1.27;;;;;;;;;;5070046;28;20052;-66
2022/05/28 12:57:07;;;;;;;2.15;0.70;;;;;;;;;;5071495;28;20049;-66
2022/05/28 12:59:38;;;;;;;2.08;0.70;;;;;;;;;;5071491;28;20044;-66
2022/05/28 13:02:17;;;;;;;4.10;0.93;;;;;;;;;;5071203;28;20488;-67
2022/05/28 13:04:47;;;;;;;4.40;1.10;;;;;;;;;;5072770;28;20072;-66
2022/05/28 13:07:37;;;;;;;1.98;0.60;;;;;;;;;;5073722;28;20048;-68
2022/05/28 13:10:17;;;;;;;3.42;0.88;;;;;;;;;;5073892;28;20102;-66
2022/05/28 13:13:04;;;;;;;4.18;0.75;;;;;;;;;;5074568;28;20052;-67
2022/05/28 13:15:57;;;;;;;4.57;1.15;;;;;;;;;;5074016;28;20056;-67
2022/05/28 13:18:33;;;;;;;2.85;0.70;;;;;;;;;;5075126;28;20052;-67
2022/05/28 13:21:02;;;;;;;4.15;1.02;;;;;;;;;;5074800;28;20044;-66
2022/05/28 13:23:34;;;;;;;3.80;1.02;;;;;;;;;;5074472;28;20102;-66
2022/05/28 13:26:16;;;;;;;4.18;1.10;;;;;;;;;;5073552;28;20044;-66
2022/05/28 13:29:05;;;;;;;2.38;0.50;;;;;;;;;;5075777;28;20594;-66
2022/05/28 13:31:36;;;;;;;3.25;1.00;;;;;;;;;;5074276;28;20090;-67
2022/05/28 13:34:16;;;;;;;3.28;0.73;;;;;;;;;;5073391;28;20542;-67
2022/05/28 13:36:42;;;;;;;3.92;1.15;;;;;;;;;;5058031;28;20052;-67
2022/05/28 13:39:09;;;;;;;2.95;1.08;;;;;;;;;;5074521;28;20052;-67
2022/05/28 13:41:40;;;;;;;6.00;0.98;;;;;;;;;;5074321;28;20055;-66
2022/05/28 13:44:20;;;;;;;4.40;1.17;;;;;;;;;;5073223;28;20490;-66
2022/05/28 13:46:58;;;;;;;3.80;0.75;;;;;;;;;;5056974;28;20044;-66
2022/05/28 13:49:25;;;;;;;4.30;0.60;;;;;;;;;;5073036;28;20068;-66
2022/05/28 13:52:01;;;;;;;3.58;0.70;;;;;;;;;;5072755;28;20056;-66
2022/05/28 13:54:28;;;;;;;1.92;0.93;;;;;;;;;;5073061;28;20049;-66
2022/05/28 13:57:04;;;;;;;2.05;0.70;;;;;;;;;;5073127;28;20045;-66
2022/05/28 13:59:33;;;;;;;3.03;1.00;;;;;;;;;;5072990;28;20104;-66
2022/05/28 14:02:00;;;;;;;2.38;1.02;;;;;;;;;;5073690;28;20052;-66
2022/05/28 14:04:32;;;;;;;4.90;0.77;;;;;;;;;;5106278;22;20044;-68
2022/05/28 14:07:03;;;;;;;4.55;0.88;;;;;;;;;;5074094;28;20045;-72
2022/05/28 14:09:35;;;;;;;4.40;0.80;;;;;;;;;;5056479;28;20105;-71
2022/05/28 14:12:02;;;;;;;3.53;1.20;;;;;;;;;;5072559;28;20420;-72
2022/05/28 14:14:28;;;;;;;3.75;1.38;;;;;;;;;;5072649;28;20056;-72
2022/05/28 14:17:01;;;;;;;3.92;1.30;;;;;;;;;;5072894;28;20391;-71
2022/05/28 14:19:32;;;;;;;3.95;1.15;;;;;;;;;;5072772;28;20052;-71
2022/05/28 14:22:01;;;;;;;3.17;0.80;;;;;;;;;;5072372;28;20052;-71
2022/05/28 14:24:38;;;;;;;4.30;1.10;;;;;;;;;;5073718;28;20071;-72
2022/05/28 14:27:09;;;;;;;5.00;1.60;;;;;;;;;;5055963;28;20041;-72
2022/05/28 14:29:44;;;;;;;3.50;1.25;;;;;;;;;;5072698;28;20055;-71
2022/05/28 14:32:13;;;;;;;4.47;1.85;;;;;;;;;;5073100;28;20059;-72
2022/05/28 14:34:42;;;;;;;3.58;1.05;;;;;;;;;;5072338;28;20083;-71
2022/05/28 14:37:09;;;;;;;1.92;0.70;;;;;;;;;;5055692;28;20044;-71
2022/05/28 14:39:43;;;;;;;2.13;0.77;;;;;;;;;;5071987;28;20045;-72
2022/05/28 14:42:12;;;;;;;3.70;0.80;;;;;;;;;;5073390;28;20055;-71
2022/05/28 14:44:39;;;;;;;2.95;1.02;;;;;;;;;;5073305;28;20052;-71
2022/05/28 14:47:30;;;;;;;3.03;0.85;;;;;;;;;;5072063;28;20048;-72
2022/05/28 14:49:58;;;;;;;2.22;0.82;;;;;;;;;;5060187;28;20056;-72
2022/05/28 14:52:32;;;;;;;4.65;0.98;;;;;;;;;;5072894;28;20059;-71
2022/05/28 14:55:07;;;;;;;1.70;0.77;;;;;;;;;;5056519;28;20443;-71
2022/05/28 14:57:37;;;;;;;3.03;0.80;;;;;;;;;;5073202;28;20559;-72
2022/05/28 15:00:09;;;;;;;3.75;0.82;;;;;;;;;;5075160;28;20469;-72
2022/05/28 15:02:37;;;;;;;3.17;0.82;;;;;;;;;;5073750;28;20055;-72
2022/05/28 15:05:22;;;;;;;2.13;0.80;;;;;;;;;;5073497;28;20056;-72
2022/05/28 15:08:00;;;;;;;3.28;0.70;;;;;;;;;;5073356;28;20064;-71
2022/05/28 15:10:45;;;;;;;1.45;0.55;;;;;;;;;;5072280;28;20044;-71
2022/05/28 15:13:29;;;;;;;2.45;0.75;;;;;;;;;;5072827;28;20098;-72
2022/05/28 15:15:58;;;;;;;2.05;0.70;;;;;;;;;;5073356;28;20511;-72
2022/05/28 15:18:28;;;;;;;1.95;0.77;;;;;;;;;;5072765;28;20048;-72
2022/05/28 15:20:57;;;;;;;2.08;0.70;;;;;;;;;;5072705;28;20417;-72